createdAt,value
2018-01-20T00:00:53.886Z,93.49
2018-01-20T00:03:21.834Z,93.71
2018-01-20T00:05:49.772Z,93.49
2018-01-20T00:08:17.698Z,93.63
2018-01-20T00:10:57.570Z,93.31
2018-01-20T00:13:25.538Z,93.51
2018-01-20T00:15:53.714Z,93.82
2018-01-20T00:18:21.789Z,93.47
2018-01-20T00:20:49.775Z,93.24
2018-01-20T00:23:17.778Z,93.57
2018-01-20T00:28:46.432Z,93.40
2018-01-20T00:31:14.392Z,93.80
2018-01-20T00:33:42.328Z,94.13
2018-01-20T00:36:10.891Z,93.79
2018-01-20T00:38:38.964Z,93.37
2018-01-20T00:41:07.036Z,93.51
2018-01-20T00:43:35.017Z,93.59
2018-01-20T00:46:03.058Z,92.99
2018-01-20T00:48:31.047Z,93.17
2018-01-20T00:50:59.118Z,93.06
2018-01-20T00:53:27.083Z,92.19
2018-01-20T00:55:55.018Z,92.40
2018-01-20T00:58:23.000Z,92.44
2018-01-20T01:00:50.945Z,92.44
2018-01-20T01:03:18.861Z,92.98
2018-01-20T01:05:46.865Z,92.91
2018-01-20T01:08:14.847Z,92.14
2018-01-20T01:10:42.860Z,92.33
2018-01-20T01:13:10.774Z,92.14
2018-01-20T01:15:38.706Z,92.23
2018-01-20T01:18:06.652Z,91.47
2018-01-20T01:20:34.570Z,92.08
2018-01-20T01:23:02.510Z,92.25
2018-01-20T01:25:30.450Z,91.74
2018-01-20T01:27:58.386Z,91.82
2018-01-20T01:30:26.358Z,91.72
2018-01-20T01:32:54.400Z,91.72
2018-01-20T01:35:22.347Z,92.08
2018-01-20T01:37:50.289Z,92.41
2018-01-20T01:40:18.246Z,92.65
2018-01-20T01:42:46.212Z,93.21
2018-01-20T01:45:14.231Z,92.64
2018-01-20T01:47:42.250Z,92.67
2018-01-20T01:50:10.298Z,91.91
2018-01-20T01:52:38.233Z,91.77
2018-01-20T01:55:06.175Z,91.83
2018-01-20T01:57:34.146Z,92.17
2018-01-20T02:00:02.105Z,92.02
2018-01-20T02:02:30.058Z,91.97
2018-01-20T02:04:57.981Z,91.79
2018-01-20T02:07:26.094Z,91.67
2018-01-20T02:09:54.237Z,92.12
2018-01-20T02:12:22.161Z,92.02
2018-01-20T02:14:50.117Z,92.07
2018-01-20T02:17:18.092Z,91.77
2018-01-20T02:19:46.054Z,91.44
2018-01-20T02:22:14.021Z,90.81
2018-01-20T02:24:41.998Z,91.91
2018-01-20T02:27:09.957Z,91.77
2018-01-20T02:29:37.899Z,91.90
2018-01-20T02:32:05.851Z,91.89
2018-01-20T02:34:33.986Z,91.81
2018-01-20T02:37:02.194Z,91.54
2018-01-20T02:39:30.109Z,91.11
2018-01-20T02:41:58.131Z,91.18
2018-01-20T02:44:26.097Z,91.32
2018-01-20T02:46:54.036Z,91.38
2018-01-20T02:49:23.873Z,92.02
2018-01-20T02:51:52.267Z,92.10
2018-01-20T02:54:20.325Z,91.63
2018-01-20T02:56:48.319Z,90.85
2018-01-20T02:59:16.391Z,89.28
2018-01-20T03:01:44.337Z,89.79
2018-01-20T03:04:12.439Z,89.86
2018-01-20T03:06:40.742Z,88.96
2018-01-20T03:09:10.856Z,89.83
2018-01-20T03:11:39.707Z,89.32
2018-01-20T03:14:07.681Z,90.15
2018-01-20T03:16:35.937Z,90.27
2018-01-20T03:19:03.935Z,90.34
2018-01-20T03:21:32.081Z,90.50
2018-01-20T03:24:00.913Z,90.47
2018-01-20T03:26:28.891Z,89.73
2018-01-20T03:28:56.995Z,90.07
2018-01-20T03:31:25.768Z,90.48
2018-01-20T03:33:53.865Z,89.58
2018-01-20T03:36:21.954Z,89.83
2018-01-20T03:38:50.006Z,90.44
2018-01-20T03:41:17.924Z,89.35
2018-01-20T03:43:45.852Z,90.28
2018-01-20T03:46:13.885Z,90.01
2018-01-20T03:48:42.877Z,90.28
2018-01-20T03:51:11.335Z,88.86
2018-01-20T03:53:39.778Z,89.49
2018-01-20T03:56:08.626Z,88.78
2018-01-20T03:58:37.405Z,89.70
2018-01-20T04:01:06.491Z,89.54
2018-01-20T04:03:34.560Z,89.60
2018-01-20T04:06:03.413Z,90.44
2018-01-20T04:08:31.605Z,89.47
2018-01-20T04:10:59.628Z,89.05
2018-01-20T04:13:27.590Z,88.54
2018-01-20T04:15:56.194Z,89.21
2018-01-20T04:18:24.770Z,88.57
2018-01-20T04:20:52.915Z,89.18
2018-01-20T04:23:20.961Z,89.01
2018-01-20T04:25:48.996Z,87.86
2018-01-20T04:28:16.936Z,87.84
2018-01-20T04:30:44.866Z,88.55
2018-01-20T04:33:12.832Z,88.28
2018-01-20T04:35:40.766Z,88.83
2018-01-20T04:38:08.700Z,88.89
2018-01-20T04:40:36.622Z,89.54
2018-01-20T04:43:04.549Z,89.08
2018-01-20T04:45:32.489Z,88.79
2018-01-20T04:48:00.479Z,89.11
2018-01-20T04:50:28.455Z,89.25
2018-01-20T04:52:56.449Z,89.29
2018-01-20T04:55:24.383Z,89.50
2018-01-20T04:57:52.405Z,88.68
2018-01-20T05:00:20.325Z,88.71
2018-01-20T05:02:48.247Z,88.93
2018-01-20T05:05:16.216Z,89.39
2018-01-20T05:07:44.129Z,89.00
2018-01-20T05:10:12.083Z,88.42
2018-01-20T05:12:40.008Z,88.96
2018-01-20T05:15:07.937Z,89.09
2018-01-20T05:17:35.967Z,88.94
2018-01-20T05:20:04.654Z,89.25
2018-01-20T05:22:32.626Z,88.94
2018-01-20T05:25:02.060Z,88.73
2018-01-20T05:27:30.263Z,88.54
2018-01-20T05:29:58.253Z,87.46
2018-01-20T05:32:26.162Z,88.36
2018-01-20T05:34:54.125Z,89.15
2018-01-20T05:37:22.142Z,88.97
2018-01-20T05:39:50.166Z,89.38
2018-01-20T05:42:18.146Z,89.57
2018-01-20T05:44:46.063Z,89.40
2018-01-20T05:47:14.045Z,89.92
2018-01-20T05:49:41.979Z,89.02
2018-01-20T05:52:09.949Z,89.41
2018-01-20T05:54:38.056Z,89.23
2018-01-20T05:57:05.993Z,89.85
2018-01-20T05:59:33.961Z,90.55
2018-01-20T06:02:01.881Z,90.05
2018-01-20T06:04:29.861Z,90.37
2018-01-20T06:06:57.974Z,90.05
2018-01-20T06:09:25.908Z,90.31
2018-01-20T06:11:53.877Z,90.66
2018-01-20T06:14:22.629Z,90.26
2018-01-20T06:16:50.563Z,90.12
2018-01-20T06:19:20.315Z,90.16
2018-01-20T06:21:48.483Z,90.65
2018-01-20T06:24:16.451Z,90.57
2018-01-20T06:26:44.381Z,90.28
2018-01-20T06:29:12.313Z,89.33
2018-01-20T06:31:40.265Z,90.14
2018-01-20T06:34:08.358Z,89.84
2018-01-20T06:36:36.387Z,90.02
2018-01-20T06:39:04.395Z,89.66
2018-01-20T06:41:32.535Z,89.44
2018-01-20T06:44:00.516Z,89.36
2018-01-20T06:46:28.462Z,89.12
2018-01-20T06:48:56.431Z,89.15
2018-01-20T06:51:24.374Z,89.34
2018-01-20T06:53:52.318Z,88.83
2018-01-20T06:56:20.268Z,89.04
2018-01-20T06:58:48.513Z,89.10
2018-01-20T07:01:16.477Z,88.51
2018-01-20T07:03:44.401Z,88.64
2018-01-20T07:06:12.351Z,88.96
2018-01-20T07:08:40.291Z,88.92
2018-01-20T07:11:08.228Z,88.88
2018-01-20T07:13:36.155Z,89.40
2018-01-20T07:16:04.632Z,89.57
2018-01-20T07:18:32.579Z,89.01
2018-01-20T07:21:00.494Z,89.34
2018-01-20T07:23:28.437Z,89.40
2018-01-20T07:25:56.382Z,88.69
2018-01-20T07:28:24.332Z,89.31
2018-01-20T07:30:52.248Z,88.86
2018-01-20T07:33:20.190Z,89.23
2018-01-20T07:35:48.135Z,89.34
2018-01-20T07:38:16.188Z,90.18
2018-01-20T07:40:44.121Z,89.57
2018-01-20T07:43:12.069Z,90.12
2018-01-20T07:45:39.998Z,89.47
2018-01-20T07:48:07.985Z,89.10
2018-01-20T07:50:35.960Z,89.15
2018-01-20T07:53:03.932Z,88.99
2018-01-20T07:55:31.873Z,89.89
2018-01-20T07:57:59.808Z,89.98
2018-01-20T08:00:27.761Z,89.05
2018-01-20T08:02:55.705Z,88.97
2018-01-20T08:05:23.726Z,89.57
2018-01-20T08:07:51.987Z,89.76
2018-01-20T08:10:19.949Z,89.57
2018-01-20T08:12:47.883Z,89.90
2018-01-20T08:15:15.828Z,89.24
2018-01-20T08:17:43.761Z,89.68
2018-01-20T08:20:11.701Z,90.02
2018-01-20T08:22:39.773Z,89.80
2018-01-20T08:25:07.722Z,89.63
2018-01-20T08:27:35.714Z,89.09
2018-01-20T08:30:03.688Z,88.47
2018-01-20T08:32:31.640Z,89.27
2018-01-20T08:34:59.609Z,89.04
2018-01-20T08:37:27.616Z,88.96
2018-01-20T08:39:55.568Z,88.66
2018-01-20T08:42:23.613Z,88.50
2018-01-20T08:44:51.530Z,88.61
2018-01-20T08:47:19.465Z,88.88
2018-01-20T08:49:48.033Z,87.79
2018-01-20T08:52:15.946Z,87.95
2018-01-20T08:54:43.870Z,88.18
2018-01-20T08:57:11.784Z,87.55
2018-01-20T08:59:39.720Z,87.67
2018-01-20T09:02:07.677Z,87.61
2018-01-20T09:04:35.610Z,87.54
2018-01-20T09:07:03.562Z,87.78
2018-01-20T09:09:31.496Z,86.93
2018-01-20T09:11:59.553Z,87.22
2018-01-20T09:14:27.470Z,88.04
2018-01-20T09:16:55.408Z,86.83
2018-01-20T09:19:23.379Z,86.86
2018-01-20T09:21:51.274Z,86.43
2018-01-20T09:24:19.212Z,86.19
2018-01-20T09:26:47.151Z,86.67
2018-01-20T09:29:15.085Z,86.68
2018-01-20T09:31:43.002Z,85.67
2018-01-20T09:34:10.921Z,86.41
2018-01-20T09:36:38.865Z,89.70
2018-01-20T09:39:06.818Z,85.79
2018-01-20T09:41:35.522Z,85.69
2018-01-20T09:44:03.564Z,85.31
2018-01-20T09:46:31.491Z,86.21
2018-01-20T09:48:59.432Z,87.03
2018-01-20T09:51:27.379Z,87.08
2018-01-20T09:53:55.394Z,86.99
2018-01-20T09:56:23.384Z,87.07
2018-01-20T09:58:51.279Z,86.45
2018-01-20T10:01:19.225Z,86.70
2018-01-20T10:03:47.188Z,86.55
2018-01-20T10:06:15.102Z,86.77
2018-01-20T10:08:43.098Z,86.54
2018-01-20T10:11:11.026Z,86.96
2018-01-20T10:13:39.018Z,86.67
2018-01-20T10:16:06.943Z,85.83
2018-01-20T10:18:34.872Z,86.21
2018-01-20T10:21:02.815Z,85.06
2018-01-20T10:23:30.733Z,86.22
2018-01-20T10:25:58.667Z,86.05
2018-01-20T10:28:26.618Z,86.83
2018-01-20T10:30:54.541Z,86.90
2018-01-20T10:33:22.459Z,88.03
2018-01-20T10:35:50.456Z,87.67
2018-01-20T10:38:18.399Z,87.32
2018-01-20T10:40:46.329Z,88.76
2018-01-20T10:43:14.281Z,87.96
2018-01-20T10:45:42.192Z,88.12
2018-01-20T10:48:10.137Z,86.90
2018-01-20T10:50:38.051Z,88.46
2018-01-20T10:53:06.005Z,88.37
2018-01-20T10:55:33.989Z,87.93
2018-01-20T10:58:01.929Z,86.68
2018-01-20T11:00:29.844Z,87.09
2018-01-20T11:02:57.749Z,88.06
2018-01-20T11:05:25.646Z,88.01
2018-01-20T11:07:53.593Z,87.97
2018-01-20T11:10:21.512Z,87.73
2018-01-20T11:12:49.442Z,87.12
2018-01-20T11:15:17.354Z,87.06
2018-01-20T11:17:45.303Z,87.13
2018-01-20T11:20:13.296Z,87.89
2018-01-20T11:22:41.325Z,88.12
2018-01-20T11:25:09.249Z,86.72
2018-01-20T11:27:37.176Z,87.86
2018-01-20T11:30:05.213Z,88.54
2018-01-20T11:32:33.133Z,87.59
2018-01-20T11:35:01.064Z,87.32
2018-01-20T11:37:28.971Z,88.55
2018-01-20T11:39:56.952Z,88.37
2018-01-20T11:42:24.886Z,88.47
2018-01-20T11:44:53.285Z,87.89
2018-01-20T11:47:21.253Z,87.64
2018-01-20T11:49:49.301Z,86.90
2018-01-20T11:52:17.246Z,87.96
2018-01-20T11:54:45.169Z,88.28
2018-01-20T11:57:13.232Z,87.71
2018-01-20T11:59:41.205Z,88.05
2018-01-20T12:02:09.159Z,89.16
2018-01-20T12:04:37.193Z,88.49
2018-01-20T12:07:05.120Z,87.80
2018-01-20T12:09:33.153Z,87.89
2018-01-20T12:12:01.084Z,90.21
2018-01-20T12:14:29.047Z,88.41
2018-01-20T12:16:56.954Z,88.87
2018-01-20T12:19:25.815Z,88.22
2018-01-20T12:21:53.744Z,87.35
2018-01-20T12:24:21.667Z,87.44
2018-01-20T12:26:49.762Z,89.04
2018-01-20T12:29:17.681Z,87.41
2018-01-20T12:31:45.593Z,88.13
2018-01-20T12:34:13.529Z,87.99
2018-01-20T12:36:41.439Z,87.74
2018-01-20T12:39:09.382Z,87.14
2018-01-20T12:41:37.491Z,87.63
2018-01-20T12:44:05.757Z,87.47
2018-01-20T12:46:33.687Z,86.80
2018-01-20T12:49:01.641Z,87.56
2018-01-20T12:51:29.569Z,87.77
2018-01-20T12:53:57.486Z,87.83
2018-01-20T12:56:25.519Z,87.75
2018-01-20T12:58:53.590Z,87.83
2018-01-20T13:01:21.517Z,86.95
2018-01-20T13:03:49.433Z,87.93
2018-01-20T13:06:17.374Z,87.97
2018-01-20T13:08:45.310Z,87.44
2018-01-20T13:11:13.285Z,88.81
2018-01-20T13:13:41.498Z,87.13
2018-01-20T13:16:09.436Z,88.17
2018-01-20T13:18:37.405Z,87.41
2018-01-20T13:21:05.358Z,88.36
2018-01-20T13:23:34.105Z,86.96
2018-01-20T13:26:02.054Z,87.28
2018-01-20T13:28:30.559Z,87.44
2018-01-20T13:30:58.493Z,87.09
2018-01-20T13:33:26.419Z,87.90
2018-01-20T13:35:54.329Z,87.46
2018-01-20T13:38:22.423Z,87.83
2018-01-20T13:40:50.477Z,86.90
2018-01-20T13:43:18.411Z,86.16
2018-01-20T13:45:47.446Z,86.16
2018-01-20T13:48:15.523Z,86.84
2018-01-20T13:50:43.556Z,86.61
2018-01-20T13:53:11.685Z,86.64
2018-01-20T13:55:39.712Z,87.02
2018-01-20T13:58:07.641Z,86.88
2018-01-20T14:00:35.637Z,87.94
2018-01-20T14:03:03.577Z,87.24
2018-01-20T14:05:31.529Z,86.54
2018-01-20T14:07:59.472Z,86.00
2018-01-20T14:10:27.385Z,86.25
2018-01-20T14:12:55.356Z,86.09
2018-01-20T14:15:23.405Z,86.84
2018-01-20T14:17:51.376Z,85.16
2018-01-20T14:20:19.425Z,85.93
2018-01-20T14:22:47.354Z,86.25
2018-01-20T14:25:15.621Z,86.12
2018-01-20T14:27:43.560Z,86.21
2018-01-20T14:30:11.737Z,86.21
2018-01-20T14:32:39.652Z,86.67
2018-01-20T14:35:07.607Z,86.96
2018-01-20T14:37:35.589Z,86.41
2018-01-20T14:40:03.825Z,86.50
2018-01-20T14:42:31.867Z,86.59
2018-01-20T14:44:59.797Z,86.59
2018-01-20T14:47:28.884Z,86.77
2018-01-20T14:49:56.853Z,86.63
2018-01-20T14:52:24.924Z,86.39
2018-01-20T14:54:52.833Z,86.29
2018-01-20T14:57:20.926Z,86.78
2018-01-20T14:59:49.101Z,87.27
2018-01-20T15:02:17.648Z,86.96
2018-01-20T15:04:45.566Z,86.58
2018-01-20T15:07:13.612Z,87.85
2018-01-20T15:09:41.617Z,87.03
2018-01-20T15:12:09.605Z,88.02
2018-01-20T15:14:37.545Z,88.11
2018-01-20T15:17:05.524Z,87.97
2018-01-20T15:19:33.708Z,88.25
2018-01-20T15:22:01.603Z,88.09
2018-01-20T15:24:29.527Z,88.05
2018-01-20T15:26:57.461Z,88.76
2018-01-20T15:29:25.479Z,88.53
2018-01-20T15:31:53.394Z,89.20
2018-01-20T15:34:21.358Z,89.09
2018-01-20T15:36:49.279Z,89.25
2018-01-20T15:39:17.230Z,88.73
2018-01-20T15:41:45.149Z,89.18
2018-01-20T15:44:13.289Z,87.23
2018-01-20T15:46:41.261Z,87.15
2018-01-20T15:49:09.189Z,87.46
2018-01-20T15:51:37.197Z,86.80
2018-01-20T15:54:05.112Z,85.78
2018-01-20T15:56:33.065Z,85.96
2018-01-20T15:59:00.991Z,85.31
2018-01-20T16:01:28.923Z,85.61
2018-01-20T16:03:56.841Z,85.50
2018-01-20T16:06:24.792Z,85.87
2018-01-20T16:08:53.211Z,85.22
2018-01-20T16:11:21.143Z,86.41
2018-01-20T16:13:49.188Z,86.31
2018-01-20T16:16:17.808Z,86.77
2018-01-20T16:18:45.733Z,87.19
2018-01-20T16:21:14.934Z,87.56
2018-01-20T16:23:43.012Z,87.54
2018-01-20T16:26:11.113Z,86.74
2018-01-20T16:28:39.034Z,86.32
2018-01-20T16:31:07.017Z,84.39
2018-01-20T16:33:34.998Z,84.58
2018-01-20T16:36:02.918Z,83.79
2018-01-20T16:38:30.835Z,83.85
2018-01-20T16:40:58.777Z,83.39
2018-01-20T16:43:26.719Z,83.34
2018-01-20T16:45:54.658Z,83.94
2018-01-20T16:48:22.561Z,83.68
2018-01-20T16:50:50.505Z,84.34
2018-01-20T16:53:18.450Z,84.57
2018-01-20T16:55:46.442Z,84.15
2018-01-20T16:58:14.449Z,84.53
2018-01-20T17:00:42.372Z,84.21
2018-01-20T17:03:10.318Z,83.74
2018-01-20T17:05:38.238Z,84.87
2018-01-20T17:08:06.186Z,84.35
2018-01-20T17:10:34.134Z,84.19
2018-01-20T17:13:02.192Z,84.35
2018-01-20T17:15:30.264Z,84.13
2018-01-20T17:17:58.183Z,84.21
2018-01-20T17:20:26.221Z,84.16
2018-01-20T17:22:54.141Z,84.47
2018-01-20T17:25:22.062Z,84.07
2018-01-20T17:27:50.026Z,84.64
2018-01-20T17:30:17.926Z,84.02
2018-01-20T17:32:45.929Z,83.40
2018-01-20T17:35:13.896Z,83.11
2018-01-20T17:37:41.969Z,83.39
2018-01-20T17:40:10.935Z,82.87
2018-01-20T17:42:39.694Z,82.38
2018-01-20T17:45:07.729Z,81.92
2018-01-20T17:47:35.712Z,82.68
2018-01-20T17:50:03.699Z,82.78
2018-01-20T17:52:31.702Z,82.84
2018-01-20T17:54:59.726Z,82.75
2018-01-20T17:57:27.809Z,82.58
2018-01-20T17:59:55.956Z,82.48
2018-01-20T18:02:24.137Z,82.50
2018-01-20T18:04:52.430Z,82.43
2018-01-20T18:07:20.338Z,83.29
2018-01-20T18:09:48.437Z,83.77
2018-01-20T18:12:16.485Z,83.40
2018-01-20T18:14:44.402Z,83.65
2018-01-20T18:17:12.337Z,83.80
2018-01-20T18:19:40.321Z,83.64
2018-01-20T18:22:08.405Z,84.52
2018-01-20T18:24:36.490Z,86.29
2018-01-20T18:27:04.473Z,83.92
2018-01-20T18:29:32.420Z,84.42
2018-01-20T18:32:00.360Z,84.57
2018-01-20T18:34:28.284Z,84.40
2018-01-20T18:36:56.347Z,84.90
2018-01-20T18:39:24.273Z,84.22
2018-01-20T18:41:52.304Z,83.90
2018-01-20T18:44:20.242Z,84.26
2018-01-20T18:46:48.273Z,85.36
2018-01-20T18:49:16.253Z,84.92
2018-01-20T18:51:44.454Z,85.15
2018-01-20T18:54:12.377Z,85.06
2018-01-20T18:56:40.281Z,84.23
2018-01-20T18:59:08.292Z,84.78
2018-01-20T19:01:36.249Z,87.48
2018-01-20T19:04:04.190Z,86.02
2018-01-20T19:06:32.097Z,84.88
2018-01-20T19:09:00.058Z,83.47
2018-01-20T19:11:28.045Z,83.72
2018-01-20T19:13:55.964Z,84.01
2018-01-20T19:16:23.904Z,85.84
2018-01-20T19:18:51.826Z,85.79
2018-01-20T19:21:19.736Z,85.16
2018-01-20T19:23:47.716Z,84.82
2018-01-20T19:26:16.706Z,84.91
2018-01-20T19:28:44.623Z,85.47
2018-01-20T19:31:12.561Z,86.43
2018-01-20T19:33:40.486Z,86.29
2018-01-20T19:36:08.426Z,86.27
2018-01-20T19:38:36.333Z,86.71
2018-01-20T19:41:04.482Z,87.12
2018-01-20T19:43:32.775Z,87.79
2018-01-20T19:46:00.688Z,87.41
2018-01-20T19:48:28.700Z,87.06
2018-01-20T19:50:57.575Z,88.05
2018-01-20T19:53:25.686Z,87.91
2018-01-20T19:55:53.748Z,88.65
2018-01-20T19:58:21.718Z,88.64
2018-01-20T20:00:50.326Z,89.02
2018-01-20T20:03:18.289Z,88.89
2018-01-20T20:05:46.278Z,89.29
2018-01-20T20:08:14.204Z,89.00
2018-01-20T20:10:42.239Z,88.92
2018-01-20T20:13:11.935Z,89.16
2018-01-20T20:15:39.862Z,89.25
2018-01-20T20:18:07.847Z,89.38
2018-01-20T20:20:35.793Z,92.14
2018-01-20T20:23:03.907Z,90.52
2018-01-20T20:25:32.305Z,90.01
2018-01-20T20:28:01.109Z,89.89
2018-01-20T20:30:29.389Z,90.36
2018-01-20T20:32:57.298Z,90.69
2018-01-20T20:35:25.224Z,90.60
2018-01-20T20:37:53.167Z,90.37
2018-01-20T20:40:21.101Z,90.50
2018-01-20T20:42:49.341Z,91.02
2018-01-20T20:45:17.372Z,91.25
2018-01-20T20:47:45.287Z,91.78
2018-01-20T20:50:13.228Z,91.96
2018-01-20T20:52:41.386Z,92.30
2018-01-20T20:55:09.349Z,91.96
2018-01-20T20:57:37.281Z,91.79
2018-01-20T21:00:05.245Z,91.72
2018-01-20T21:02:33.170Z,91.74
2018-01-20T21:05:01.321Z,92.36
2018-01-20T21:07:29.261Z,92.63
2018-01-20T21:09:57.238Z,92.58
2018-01-20T21:12:25.157Z,92.37
2018-01-20T21:14:53.150Z,92.12
2018-01-20T21:17:21.069Z,92.30
2018-01-20T21:19:49.014Z,92.28
2018-01-20T21:22:16.945Z,91.78
2018-01-20T21:24:44.895Z,91.94
2018-01-20T21:27:12.928Z,91.92
2018-01-20T21:29:40.832Z,92.22
2018-01-20T21:32:08.807Z,92.27
2018-01-20T21:34:36.826Z,92.82
2018-01-20T21:37:04.745Z,93.16
2018-01-20T21:39:33.399Z,93.91
2018-01-20T21:42:01.343Z,93.48
2018-01-20T21:44:29.361Z,92.95
2018-01-20T21:46:57.490Z,93.40
2018-01-20T21:49:25.569Z,94.29
2018-01-20T21:51:53.490Z,93.82
2018-01-20T21:54:21.412Z,94.11
2018-01-20T21:56:49.362Z,94.23
2018-01-20T21:59:17.299Z,94.41
2018-01-20T22:01:45.252Z,95.80
2018-01-20T22:04:13.167Z,95.72
2018-01-20T22:06:41.120Z,95.29
2018-01-20T22:09:09.044Z,94.38
2018-01-20T22:11:37.093Z,93.98
2018-01-20T22:14:05.045Z,94.22
2018-01-20T22:16:32.957Z,95.43
2018-01-20T22:19:00.953Z,94.33
2018-01-20T22:21:28.920Z,94.00
2018-01-20T22:23:56.861Z,94.05
2018-01-20T22:26:24.813Z,93.91
2018-01-20T22:28:52.760Z,93.91
2018-01-20T22:31:20.730Z,93.91
2018-01-20T22:33:48.805Z,93.62
2018-01-20T22:36:16.768Z,93.62
2018-01-20T22:38:44.897Z,92.95
2018-01-20T22:41:12.969Z,93.53
2018-01-20T22:43:40.917Z,93.34
2018-01-20T22:46:09.048Z,93.78
2018-01-20T22:48:37.192Z,93.79
2018-01-20T22:51:05.463Z,93.94
2018-01-20T22:53:33.452Z,94.13
2018-01-20T22:56:01.420Z,94.11
2018-01-20T22:58:29.343Z,93.85
2018-01-20T23:03:53.611Z,94.26
2018-01-20T23:06:21.537Z,94.35
2018-01-20T23:08:49.482Z,93.75
2018-01-20T23:11:17.401Z,93.98
2018-01-20T23:13:45.450Z,94.37
2018-01-20T23:16:13.445Z,94.91
2018-01-20T23:18:41.439Z,94.75
2018-01-20T23:21:09.492Z,94.47
2018-01-20T23:23:37.560Z,94.54
2018-01-20T23:26:05.576Z,93.62
2018-01-20T23:28:33.520Z,93.35
2018-01-20T23:31:01.445Z,93.16
2018-01-20T23:33:29.420Z,92.74
2018-01-20T23:35:57.361Z,92.49
2018-01-20T23:38:25.449Z,92.49
2018-01-20T23:40:53.468Z,92.82
2018-01-20T23:43:21.420Z,92.46
2018-01-20T23:45:50.212Z,92.79
2018-01-20T23:48:18.575Z,92.49
2018-01-20T23:50:46.625Z,91.43
2018-01-20T23:53:14.588Z,91.21
2018-01-20T23:55:42.505Z,91.49
2018-01-20T23:58:10.429Z,91.55
